sensor_id;sensor_type;location;lat;lon;timestamp;P1;durP1;ratioP1;P2;durP2;ratioP2
6725;SDS011;3400;48.506;11.692;2022-11-25T00:01:25;338.30;;;22.87;;
6725;SDS011;3400;48.506;11.692;2022-11-25T00:03:52;20.23;;;12.30;;
6725;SDS011;3400;48.506;11.692;2022-11-25T00:06:20;17.17;;;11.90;;
6725;SDS011;3400;48.506;11.692;2022-11-25T00:08:48;11.67;;;9.57;;
6725;SDS011;3400;48.506;11.692;2022-11-25T00:11:16;11.23;;;10.00;;
6725;SDS011;3400;48.506;11.692;2022-11-25T00:13:43;12.97;;;10.70;;
6725;SDS011;3400;48.506;11.692;2022-11-25T00:16:11;14.53;;;10.13;;
6725;SDS011;3400;48.506;11.692;2022-11-25T00:18:38;15.17;;;11.23;;
6725;SDS011;3400;48.506;11.692;2022-11-25T00:21:05;13.17;;;10.27;;
6725;SDS011;3400;48.506;11.692;2022-11-25T00:23:33;14.37;;;9.97;;
6725;SDS011;3400;48.506;11.692;2022-11-25T00:26:09;15.60;;;10.43;;
6725;SDS011;3400;48.506;11.692;2022-11-25T00:28:36;12.77;;;9.27;;
6725;SDS011;3400;48.506;11.692;2022-11-25T00:31:22;14.73;;;10.57;;
6725;SDS011;3400;48.506;11.692;2022-11-25T00:33:49;11.80;;;10.13;;
6725;SDS011;3400;48.506;11.692;2022-11-25T00:38:43;17.83;;;11.30;;
6725;SDS011;3400;48.506;11.692;2022-11-25T00:41:10;12.63;;;10.30;;
6725;SDS011;3400;48.506;11.692;2022-11-25T00:43:55;15.17;;;9.30;;
6725;SDS011;3400;48.506;11.692;2022-11-25T00:46:41;16.37;;;9.60;;
6725;SDS011;3400;48.506;11.692;2022-11-25T00:49:07;11.63;;;9.93;;
6725;SDS011;3400;48.506;11.692;2022-11-25T00:51:34;13.93;;;9.57;;
6725;SDS011;3400;48.506;11.692;2022-11-25T00:54:01;13.63;;;8.43;;
6725;SDS011;3400;48.506;11.692;2022-11-25T00:56:28;24.00;;;9.23;;
6725;SDS011;3400;48.506;11.692;2022-11-25T00:58:55;13.40;;;8.27;;
6725;SDS011;3400;48.506;11.692;2022-11-25T01:01:22;10.43;;;8.43;;
6725;SDS011;3400;48.506;11.692;2022-11-25T01:03:49;9.83;;;7.60;;
6725;SDS011;3400;48.506;11.692;2022-11-25T01:06:16;12.33;;;7.90;;
6725;SDS011;3400;48.506;11.692;2022-11-25T01:08:43;11.07;;;7.87;;
6725;SDS011;3400;48.506;11.692;2022-11-25T01:11:10;9.40;;;7.90;;
6725;SDS011;3400;48.506;11.692;2022-11-25T01:13:38;10.87;;;7.77;;
6725;SDS011;3400;48.506;11.692;2022-11-25T01:16:06;11.13;;;8.03;;
6725;SDS011;3400;48.506;11.692;2022-11-25T01:18:33;13.90;;;9.07;;
6725;SDS011;3400;48.506;11.692;2022-11-25T01:23:36;11.80;;;8.90;;
6725;SDS011;3400;48.506;11.692;2022-11-25T01:26:04;11.27;;;8.90;;
6725;SDS011;3400;48.506;11.692;2022-11-25T01:28:31;11.10;;;8.00;;
6725;SDS011;3400;48.506;11.692;2022-11-25T01:31:06;10.47;;;8.23;;
6725;SDS011;3400;48.506;11.692;2022-11-25T01:33:33;9.80;;;8.10;;
6725;SDS011;3400;48.506;11.692;2022-11-25T01:36:00;9.70;;;8.70;;
6725;SDS011;3400;48.506;11.692;2022-11-25T01:38:28;11.20;;;7.77;;
6725;SDS011;3400;48.506;11.692;2022-11-25T01:40:54;11.63;;;8.20;;
6725;SDS011;3400;48.506;11.692;2022-11-25T01:43:21;10.10;;;7.10;;
6725;SDS011;3400;48.506;11.692;2022-11-25T01:45:48;8.37;;;5.83;;
6725;SDS011;3400;48.506;11.692;2022-11-25T01:48:20;7.17;;;5.97;;
6725;SDS011;3400;48.506;11.692;2022-11-25T01:50:47;9.70;;;5.60;;
6725;SDS011;3400;48.506;11.692;2022-11-25T01:53:15;5.73;;;5.10;;
6725;SDS011;3400;48.506;11.692;2022-11-25T01:55:43;6.00;;;4.97;;
6725;SDS011;3400;48.506;11.692;2022-11-25T01:58:15;6.97;;;5.77;;
6725;SDS011;3400;48.506;11.692;2022-11-25T02:00:43;6.77;;;5.20;;
6725;SDS011;3400;48.506;11.692;2022-11-25T02:03:39;7.37;;;6.50;;
6725;SDS011;3400;48.506;11.692;2022-11-25T02:08:35;9.30;;;5.40;;
6725;SDS011;3400;48.506;11.692;2022-11-25T02:11:02;8.03;;;5.77;;
6725;SDS011;3400;48.506;11.692;2022-11-25T02:13:29;8.40;;;5.43;;
6725;SDS011;3400;48.506;11.692;2022-11-25T02:15:56;6.83;;;5.47;;
6725;SDS011;3400;48.506;11.692;2022-11-25T02:18:24;5.47;;;4.97;;
6725;SDS011;3400;48.506;11.692;2022-11-25T02:20:51;9.83;;;5.33;;
6725;SDS011;3400;48.506;11.692;2022-11-25T02:25:52;5.20;;;4.70;;
6725;SDS011;3400;48.506;11.692;2022-11-25T02:28:20;10.67;;;5.33;;
6725;SDS011;3400;48.506;11.692;2022-11-25T02:30:48;7.00;;;4.90;;
6725;SDS011;3400;48.506;11.692;2022-11-25T02:33:14;10.33;;;5.77;;
6725;SDS011;3400;48.506;11.692;2022-11-25T02:35:42;7.57;;;5.50;;
6725;SDS011;3400;48.506;11.692;2022-11-25T02:40:39;5.20;;;4.70;;
6725;SDS011;3400;48.506;11.692;2022-11-25T02:43:08;7.13;;;5.57;;
6725;SDS011;3400;48.506;11.692;2022-11-25T02:45:40;8.50;;;5.37;;
6725;SDS011;3400;48.506;11.692;2022-11-25T02:48:08;5.30;;;4.80;;
6725;SDS011;3400;48.506;11.692;2022-11-25T02:50:35;8.33;;;5.73;;
6725;SDS011;3400;48.506;11.692;2022-11-25T02:53:02;7.40;;;5.03;;
6725;SDS011;3400;48.506;11.692;2022-11-25T02:55:29;6.70;;;4.93;;
6725;SDS011;3400;48.506;11.692;2022-11-25T02:57:55;7.70;;;4.80;;
6725;SDS011;3400;48.506;11.692;2022-11-25T03:00:22;10.03;;;4.80;;
6725;SDS011;3400;48.506;11.692;2022-11-25T03:02:50;9.20;;;5.00;;
6725;SDS011;3400;48.506;11.692;2022-11-25T03:05:20;6.93;;;5.00;;
6725;SDS011;3400;48.506;11.692;2022-11-25T03:07:47;6.23;;;4.70;;
6725;SDS011;3400;48.506;11.692;2022-11-25T03:10:15;7.60;;;5.37;;
6725;SDS011;3400;48.506;11.692;2022-11-25T03:12:42;7.03;;;6.23;;
6725;SDS011;3400;48.506;11.692;2022-11-25T03:15:09;9.57;;;5.77;;
6725;SDS011;3400;48.506;11.692;2022-11-25T03:17:36;6.80;;;5.10;;
6725;SDS011;3400;48.506;11.692;2022-11-25T03:20:04;5.40;;;4.90;;
6725;SDS011;3400;48.506;11.692;2022-11-25T03:22:31;6.03;;;5.37;;
6725;SDS011;3400;48.506;11.692;2022-11-25T03:24:57;5.80;;;5.20;;
6725;SDS011;3400;48.506;11.692;2022-11-25T03:27:24;6.27;;;5.03;;
6725;SDS011;3400;48.506;11.692;2022-11-25T03:29:51;7.70;;;5.50;;
6725;SDS011;3400;48.506;11.692;2022-11-25T03:32:18;7.67;;;5.77;;
6725;SDS011;3400;48.506;11.692;2022-11-25T03:34:45;6.00;;;4.90;;
6725;SDS011;3400;48.506;11.692;2022-11-25T03:37:11;7.43;;;5.20;;
6725;SDS011;3400;48.506;11.692;2022-11-25T03:39:38;5.70;;;5.13;;
6725;SDS011;3400;48.506;11.692;2022-11-25T03:42:06;5.27;;;4.77;;
6725;SDS011;3400;48.506;11.692;2022-11-25T03:44:33;6.03;;;5.23;;
6725;SDS011;3400;48.506;11.692;2022-11-25T03:46:59;6.73;;;4.40;;
6725;SDS011;3400;48.506;11.692;2022-11-25T03:49:26;6.17;;;4.93;;
6725;SDS011;3400;48.506;11.692;2022-11-25T03:51:53;4.90;;;4.37;;
6725;SDS011;3400;48.506;11.692;2022-11-25T03:54:20;4.87;;;4.00;;
6725;SDS011;3400;48.506;11.692;2022-11-25T03:57:05;5.63;;;4.50;;
6725;SDS011;3400;48.506;11.692;2022-11-25T03:59:33;4.20;;;3.80;;
6725;SDS011;3400;48.506;11.692;2022-11-25T04:02:00;4.67;;;4.27;;
6725;SDS011;3400;48.506;11.692;2022-11-25T04:04:27;4.90;;;4.10;;
6725;SDS011;3400;48.506;11.692;2022-11-25T04:06:54;4.77;;;3.77;;
6725;SDS011;3400;48.506;11.692;2022-11-25T04:09:21;5.33;;;4.10;;
6725;SDS011;3400;48.506;11.692;2022-11-25T04:11:48;5.67;;;4.57;;
6725;SDS011;3400;48.506;11.692;2022-11-25T04:14:44;5.23;;;4.37;;
6725;SDS011;3400;48.506;11.692;2022-11-25T04:17:11;5.10;;;4.50;;
6725;SDS011;3400;48.506;11.692;2022-11-25T04:19:38;3.97;;;3.67;;
6725;SDS011;3400;48.506;11.692;2022-11-25T04:22:04;6.00;;;4.30;;
6725;SDS011;3400;48.506;11.692;2022-11-25T04:24:34;7.27;;;4.17;;
6725;SDS011;3400;48.506;11.692;2022-11-25T04:27:02;5.00;;;4.50;;
6725;SDS011;3400;48.506;11.692;2022-11-25T04:29:29;5.67;;;4.47;;
6725;SDS011;3400;48.506;11.692;2022-11-25T04:31:59;5.43;;;4.10;;
6725;SDS011;3400;48.506;11.692;2022-11-25T04:34:25;5.47;;;3.90;;
6725;SDS011;3400;48.506;11.692;2022-11-25T04:36:53;3.57;;;3.27;;
6725;SDS011;3400;48.506;11.692;2022-11-25T04:39:19;6.53;;;3.77;;
6725;SDS011;3400;48.506;11.692;2022-11-25T04:41:49;5.77;;;3.87;;
6725;SDS011;3400;48.506;11.692;2022-11-25T04:44:37;4.70;;;4.30;;
6725;SDS011;3400;48.506;11.692;2022-11-25T04:47:04;6.17;;;4.37;;
6725;SDS011;3400;48.506;11.692;2022-11-25T04:49:31;5.17;;;4.63;;
6725;SDS011;3400;48.506;11.692;2022-11-25T04:51:58;5.93;;;4.17;;
6725;SDS011;3400;48.506;11.692;2022-11-25T04:54:25;5.30;;;4.20;;
6725;SDS011;3400;48.506;11.692;2022-11-25T04:56:52;4.80;;;4.33;;
6725;SDS011;3400;48.506;11.692;2022-11-25T04:59:18;7.50;;;4.80;;
6725;SDS011;3400;48.506;11.692;2022-11-25T05:02:15;20.00;;;7.83;;
6725;SDS011;3400;48.506;11.692;2022-11-25T05:04:52;9.20;;;7.70;;
6725;SDS011;3400;48.506;11.692;2022-11-25T05:07:21;7.47;;;6.53;;
6725;SDS011;3400;48.506;11.692;2022-11-25T05:09:50;6.83;;;5.13;;
6725;SDS011;3400;48.506;11.692;2022-11-25T05:12:27;9.60;;;4.90;;
6725;SDS011;3400;48.506;11.692;2022-11-25T05:14:54;5.27;;;4.47;;
6725;SDS011;3400;48.506;11.692;2022-11-25T05:17:26;4.90;;;4.10;;
6725;SDS011;3400;48.506;11.692;2022-11-25T05:19:54;8.00;;;4.33;;
6725;SDS011;3400;48.506;11.692;2022-11-25T05:22:22;5.03;;;4.30;;
6725;SDS011;3400;48.506;11.692;2022-11-25T05:24:50;4.43;;;4.00;;
6725;SDS011;3400;48.506;11.692;2022-11-25T05:27:18;8.80;;;4.43;;
6725;SDS011;3400;48.506;11.692;2022-11-25T05:29:44;5.80;;;5.17;;
6725;SDS011;3400;48.506;11.692;2022-11-25T05:32:13;5.80;;;5.20;;
6725;SDS011;3400;48.506;11.692;2022-11-25T05:34:41;7.03;;;5.43;;
6725;SDS011;3400;48.506;11.692;2022-11-25T05:37:08;6.77;;;5.47;;
6725;SDS011;3400;48.506;11.692;2022-11-25T05:39:37;5.83;;;5.20;;
6725;SDS011;3400;48.506;11.692;2022-11-25T05:42:25;6.53;;;5.83;;
6725;SDS011;3400;48.506;11.692;2022-11-25T05:44:52;6.50;;;5.83;;
6725;SDS011;3400;48.506;11.692;2022-11-25T05:47:18;11.47;;;5.83;;
6725;SDS011;3400;48.506;11.692;2022-11-25T05:49:46;8.07;;;6.37;;
6725;SDS011;3400;48.506;11.692;2022-11-25T05:52:13;6.33;;;5.73;;
6725;SDS011;3400;48.506;11.692;2022-11-25T05:54:48;6.80;;;6.20;;
6725;SDS011;3400;48.506;11.692;2022-11-25T05:57:15;8.03;;;6.27;;
6725;SDS011;3400;48.506;11.692;2022-11-25T05:59:48;10.40;;;7.00;;
6725;SDS011;3400;48.506;11.692;2022-11-25T06:02:20;21.30;;;9.93;;
6725;SDS011;3400;48.506;11.692;2022-11-25T06:04:47;8.80;;;7.83;;
6725;SDS011;3400;48.506;11.692;2022-11-25T06:07:14;9.80;;;8.80;;
6725;SDS011;3400;48.506;11.692;2022-11-25T06:09:40;7.77;;;6.97;;
6725;SDS011;3400;48.506;11.692;2022-11-25T06:12:07;9.23;;;6.73;;
6725;SDS011;3400;48.506;11.692;2022-11-25T06:14:40;6.97;;;6.37;;
6725;SDS011;3400;48.506;11.692;2022-11-25T06:17:07;9.47;;;7.63;;
6725;SDS011;3400;48.506;11.692;2022-11-25T06:19:41;8.73;;;7.47;;
6725;SDS011;3400;48.506;11.692;2022-11-25T06:22:08;11.23;;;8.03;;
6725;SDS011;3400;48.506;11.692;2022-11-25T06:24:34;8.17;;;7.37;;
6725;SDS011;3400;48.506;11.692;2022-11-25T06:27:05;10.50;;;8.80;;
6725;SDS011;3400;48.506;11.692;2022-11-25T06:29:33;10.30;;;7.60;;
6725;SDS011;3400;48.506;11.692;2022-11-25T06:32:00;11.07;;;7.97;;
6725;SDS011;3400;48.506;11.692;2022-11-25T06:34:50;8.70;;;7.80;;
6725;SDS011;3400;48.506;11.692;2022-11-25T06:37:27;9.33;;;8.30;;
6725;SDS011;3400;48.506;11.692;2022-11-25T06:39:54;9.73;;;8.17;;
6725;SDS011;3400;48.506;11.692;2022-11-25T06:42:21;10.30;;;8.43;;
6725;SDS011;3400;48.506;11.692;2022-11-25T06:44:47;10.03;;;8.40;;
6725;SDS011;3400;48.506;11.692;2022-11-25T06:47:14;9.80;;;8.13;;
6725;SDS011;3400;48.506;11.692;2022-11-25T06:49:41;10.47;;;7.77;;
6725;SDS011;3400;48.506;11.692;2022-11-25T06:52:07;11.30;;;9.17;;
6725;SDS011;3400;48.506;11.692;2022-11-25T06:54:34;9.90;;;8.20;;
6725;SDS011;3400;48.506;11.692;2022-11-25T06:57:08;12.20;;;9.07;;
6725;SDS011;3400;48.506;11.692;2022-11-25T06:59:35;11.10;;;9.23;;
6725;SDS011;3400;48.506;11.692;2022-11-25T07:02:02;10.83;;;7.63;;
6725;SDS011;3400;48.506;11.692;2022-11-25T07:04:29;8.93;;;7.83;;
6725;SDS011;3400;48.506;11.692;2022-11-25T07:06:56;10.20;;;8.20;;
6725;SDS011;3400;48.506;11.692;2022-11-25T07:09:22;9.83;;;7.77;;
6725;SDS011;3400;48.506;11.692;2022-11-25T07:11:49;10.67;;;8.13;;
6725;SDS011;3400;48.506;11.692;2022-11-25T07:14:16;8.10;;;7.30;;
6725;SDS011;3400;48.506;11.692;2022-11-25T07:16:43;10.80;;;8.03;;
6725;SDS011;3400;48.506;11.692;2022-11-25T07:19:11;10.13;;;7.23;;
6725;SDS011;3400;48.506;11.692;2022-11-25T07:21:38;7.80;;;7.00;;
6725;SDS011;3400;48.506;11.692;2022-11-25T07:24:05;6.60;;;5.10;;
6725;SDS011;3400;48.506;11.692;2022-11-25T07:26:33;9.97;;;5.83;;
6725;SDS011;3400;48.506;11.692;2022-11-25T07:29:00;6.67;;;6.03;;
6725;SDS011;3400;48.506;11.692;2022-11-25T07:31:29;8.53;;;5.63;;
6725;SDS011;3400;48.506;11.692;2022-11-25T07:34:03;7.37;;;5.50;;
6725;SDS011;3400;48.506;11.692;2022-11-25T07:36:30;5.30;;;4.60;;
6725;SDS011;3400;48.506;11.692;2022-11-25T07:38:58;5.30;;;4.80;;
6725;SDS011;3400;48.506;11.692;2022-11-25T07:41:25;8.60;;;4.73;;
6725;SDS011;3400;48.506;11.692;2022-11-25T07:43:57;6.73;;;5.63;;
6725;SDS011;3400;48.506;11.692;2022-11-25T07:46:25;7.77;;;5.13;;
6725;SDS011;3400;48.506;11.692;2022-11-25T07:48:53;7.33;;;5.90;;
6725;SDS011;3400;48.506;11.692;2022-11-25T07:51:21;7.80;;;6.50;;
6725;SDS011;3400;48.506;11.692;2022-11-25T07:53:48;8.10;;;6.40;;
6725;SDS011;3400;48.506;11.692;2022-11-25T07:56:15;7.77;;;6.90;;
6725;SDS011;3400;48.506;11.692;2022-11-25T07:58:42;8.57;;;7.03;;
6725;SDS011;3400;48.506;11.692;2022-11-25T08:01:09;8.77;;;7.80;;
6725;SDS011;3400;48.506;11.692;2022-11-25T08:03:37;9.70;;;8.53;;
6725;SDS011;3400;48.506;11.692;2022-11-25T08:06:06;11.83;;;8.67;;
6725;SDS011;3400;48.506;11.692;2022-11-25T08:08:33;12.00;;;8.70;;
6725;SDS011;3400;48.506;11.692;2022-11-25T08:11:00;13.40;;;8.97;;
6725;SDS011;3400;48.506;11.692;2022-11-25T08:13:30;11.07;;;9.00;;
6725;SDS011;3400;48.506;11.692;2022-11-25T08:15:57;10.90;;;9.50;;
6725;SDS011;3400;48.506;11.692;2022-11-25T08:18:25;11.33;;;9.43;;
6725;SDS011;3400;48.506;11.692;2022-11-25T08:20:51;9.77;;;8.60;;
6725;SDS011;3400;48.506;11.692;2022-11-25T08:23:18;9.90;;;8.83;;
6725;SDS011;3400;48.506;11.692;2022-11-25T08:25:45;9.33;;;8.27;;
6725;SDS011;3400;48.506;11.692;2022-11-25T08:28:11;13.40;;;9.47;;
6725;SDS011;3400;48.506;11.692;2022-11-25T08:30:38;10.77;;;8.70;;
6725;SDS011;3400;48.506;11.692;2022-11-25T08:33:05;9.50;;;8.47;;
6725;SDS011;3400;48.506;11.692;2022-11-25T08:35:32;9.23;;;8.03;;
6725;SDS011;3400;48.506;11.692;2022-11-25T08:38:06;8.47;;;7.40;;
6725;SDS011;3400;48.506;11.692;2022-11-25T08:40:34;8.03;;;7.23;;
6725;SDS011;3400;48.506;11.692;2022-11-25T08:43:01;7.70;;;6.60;;
6725;SDS011;3400;48.506;11.692;2022-11-25T08:45:28;8.30;;;7.50;;
6725;SDS011;3400;48.506;11.692;2022-11-25T08:47:55;8.57;;;7.67;;
6725;SDS011;3400;48.506;11.692;2022-11-25T08:50:22;9.37;;;8.13;;
6725;SDS011;3400;48.506;11.692;2022-11-25T08:52:49;8.77;;;7.87;;
6725;SDS011;3400;48.506;11.692;2022-11-25T08:55:16;8.93;;;7.90;;
6725;SDS011;3400;48.506;11.692;2022-11-25T08:57:43;9.10;;;8.20;;
6725;SDS011;3400;48.506;11.692;2022-11-25T09:00:10;9.07;;;8.10;;
6725;SDS011;3400;48.506;11.692;2022-11-25T09:02:36;11.07;;;7.67;;
6725;SDS011;3400;48.506;11.692;2022-11-25T09:05:03;8.13;;;7.10;;
6725;SDS011;3400;48.506;11.692;2022-11-25T09:07:30;13.60;;;9.17;;
6725;SDS011;3400;48.506;11.692;2022-11-25T09:09:57;9.30;;;8.00;;
6725;SDS011;3400;48.506;11.692;2022-11-25T09:12:23;9.10;;;8.03;;
6725;SDS011;3400;48.506;11.692;2022-11-25T09:14:50;8.87;;;8.00;;
6725;SDS011;3400;48.506;11.692;2022-11-25T09:17:16;9.33;;;8.10;;
6725;SDS011;3400;48.506;11.692;2022-11-25T09:19:43;11.50;;;7.70;;
6725;SDS011;3400;48.506;11.692;2022-11-25T09:22:10;8.73;;;7.70;;
6725;SDS011;3400;48.506;11.692;2022-11-25T09:24:36;10.87;;;7.60;;
6725;SDS011;3400;48.506;11.692;2022-11-25T09:27:03;8.20;;;6.50;;
6725;SDS011;3400;48.506;11.692;2022-11-25T09:29:30;8.00;;;6.57;;
6725;SDS011;3400;48.506;11.692;2022-11-25T09:31:57;12.27;;;7.10;;
6725;SDS011;3400;48.506;11.692;2022-11-25T09:34:23;7.63;;;6.50;;
6725;SDS011;3400;48.506;11.692;2022-11-25T09:36:50;8.17;;;7.13;;
6725;SDS011;3400;48.506;11.692;2022-11-25T09:39:17;7.90;;;6.10;;
6725;SDS011;3400;48.506;11.692;2022-11-25T09:44:57;6.57;;;5.43;;
6725;SDS011;3400;48.506;11.692;2022-11-25T09:50:16;7.37;;;6.67;;
6725;SDS011;3400;48.506;11.692;2022-11-25T09:55:32;6.13;;;5.53;;
6725;SDS011;3400;48.506;11.692;2022-11-25T10:00:46;6.30;;;5.70;;
6725;SDS011;3400;48.506;11.692;2022-11-25T10:06:26;5.93;;;5.33;;
6725;SDS011;3400;48.506;11.692;2022-11-25T10:08:49;5.47;;;4.97;;
6725;SDS011;3400;48.506;11.692;2022-11-25T10:11:21;5.60;;;5.10;;
6725;SDS011;3400;48.506;11.692;2022-11-25T10:18:51;4.53;;;4.07;;
6725;SDS011;3400;48.506;11.692;2022-11-25T10:21:18;3.63;;;3.33;;
6725;SDS011;3400;48.506;11.692;2022-11-25T10:23:45;3.10;;;2.90;;
6725;SDS011;3400;48.506;11.692;2022-11-25T10:26:15;3.30;;;3.00;;
6725;SDS011;3400;48.506;11.692;2022-11-25T10:28:45;6.83;;;3.73;;
6725;SDS011;3400;48.506;11.692;2022-11-25T10:31:18;4.20;;;3.80;;
6725;SDS011;3400;48.506;11.692;2022-11-25T10:36:22;4.20;;;3.73;;
6725;SDS011;3400;48.506;11.692;2022-11-25T10:41:16;3.17;;;2.93;;
6725;SDS011;3400;48.506;11.692;2022-11-25T10:43:44;4.33;;;3.20;;
6725;SDS011;3400;48.506;11.692;2022-11-25T10:51:15;2.90;;;2.60;;
6725;SDS011;3400;48.506;11.692;2022-11-25T10:56:31;3.50;;;2.70;;
6725;SDS011;3400;48.506;11.692;2022-11-25T10:59:24;2.37;;;2.17;;
6725;SDS011;3400;48.506;11.692;2022-11-25T11:01:51;2.23;;;1.97;;
6725;SDS011;3400;48.506;11.692;2022-11-25T11:04:18;2.30;;;2.10;;
6725;SDS011;3400;48.506;11.692;2022-11-25T11:06:46;2.50;;;2.30;;
6725;SDS011;3400;48.506;11.692;2022-11-25T11:12:06;2.13;;;2.03;;
6725;SDS011;3400;48.506;11.692;2022-11-25T11:14:32;1.80;;;1.70;;
6725;SDS011;3400;48.506;11.692;2022-11-25T11:16:59;1.70;;;1.60;;
6725;SDS011;3400;48.506;11.692;2022-11-25T11:19:27;3.00;;;2.30;;
6725;SDS011;3400;48.506;11.692;2022-11-25T11:21:55;2.17;;;1.97;;
6725;SDS011;3400;48.506;11.692;2022-11-25T11:27:37;4.87;;;2.00;;
6725;SDS011;3400;48.506;11.692;2022-11-25T11:29:38;2.83;;;1.83;;
6725;SDS011;3400;48.506;11.692;2022-11-25T11:32:06;2.17;;;1.70;;
6725;SDS011;3400;48.506;11.692;2022-11-25T11:34:51;1.43;;;1.33;;
6725;SDS011;3400;48.506;11.692;2022-11-25T11:37:26;2.00;;;1.60;;
6725;SDS011;3400;48.506;11.692;2022-11-25T11:42:43;2.00;;;1.80;;
6725;SDS011;3400;48.506;11.692;2022-11-25T11:50:26;2.70;;;1.80;;
6725;SDS011;3400;48.506;11.692;2022-11-25T11:58:25;2.10;;;1.90;;
6725;SDS011;3400;48.506;11.692;2022-11-25T12:01:07;2.30;;;2.10;;
6725;SDS011;3400;48.506;11.692;2022-11-25T12:03:29;3.87;;;2.47;;
6725;SDS011;3400;48.506;11.692;2022-11-25T12:06:01;2.20;;;2.00;;
6725;SDS011;3400;48.506;11.692;2022-11-25T12:11:02;5.87;;;2.37;;
6725;SDS011;3400;48.506;11.692;2022-11-25T12:13:45;4.10;;;2.20;;
6725;SDS011;3400;48.506;11.692;2022-11-25T12:16:16;3.60;;;2.40;;
6725;SDS011;3400;48.506;11.692;2022-11-25T12:21:32;4.83;;;2.57;;
6725;SDS011;3400;48.506;11.692;2022-11-25T12:24:02;4.93;;;2.37;;
6725;SDS011;3400;48.506;11.692;2022-11-25T12:26:35;3.73;;;2.30;;
6725;SDS011;3400;48.506;11.692;2022-11-25T12:29:08;3.37;;;2.43;;
6725;SDS011;3400;48.506;11.692;2022-11-25T12:31:38;3.17;;;2.60;;
6725;SDS011;3400;48.506;11.692;2022-11-25T12:36:39;2.97;;;2.43;;
6725;SDS011;3400;48.506;11.692;2022-11-25T12:41:58;3.33;;;2.43;;
6725;SDS011;3400;48.506;11.692;2022-11-25T12:44:36;5.17;;;2.80;;
6725;SDS011;3400;48.506;11.692;2022-11-25T12:47:08;3.77;;;3.13;;
6725;SDS011;3400;48.506;11.692;2022-11-25T12:49:40;5.27;;;3.93;;
6725;SDS011;3400;48.506;11.692;2022-11-25T13:07:55;9.30;;;4.70;;
6725;SDS011;3400;48.506;11.692;2022-11-25T13:13:20;14.93;;;8.47;;
6725;SDS011;3400;48.506;11.692;2022-11-25T13:15:48;7.10;;;5.10;;
6725;SDS011;3400;48.506;11.692;2022-11-25T13:18:21;7.83;;;4.40;;
6725;SDS011;3400;48.506;11.692;2022-11-25T13:25:43;4.83;;;4.13;;
6725;SDS011;3400;48.506;11.692;2022-11-25T13:42:00;5.93;;;3.53;;
6725;SDS011;3400;48.506;11.692;2022-11-25T13:44:34;3.17;;;2.87;;
6725;SDS011;3400;48.506;11.692;2022-11-25T13:50:02;4.83;;;2.63;;
6725;SDS011;3400;48.506;11.692;2022-11-25T13:52:35;6.33;;;2.47;;
6725;SDS011;3400;48.506;11.692;2022-11-25T13:55:06;2.93;;;2.63;;
6725;SDS011;3400;48.506;11.692;2022-11-25T13:57:34;3.73;;;1.90;;
6725;SDS011;3400;48.506;11.692;2022-11-25T14:02:51;3.43;;;2.23;;
6725;SDS011;3400;48.506;11.692;2022-11-25T14:07:51;3.43;;;2.33;;
6725;SDS011;3400;48.506;11.692;2022-11-25T14:13:06;5.80;;;3.13;;
6725;SDS011;3400;48.506;11.692;2022-11-25T14:25:42;4.77;;;3.07;;
6725;SDS011;3400;48.506;11.692;2022-11-25T14:30:47;5.30;;;2.97;;
6725;SDS011;3400;48.506;11.692;2022-11-25T14:33:16;17.40;;;9.57;;
6725;SDS011;3400;48.506;11.692;2022-11-25T14:35:54;14.43;;;9.17;;
6725;SDS011;3400;48.506;11.692;2022-11-25T14:38:28;12.37;;;6.70;;
6725;SDS011;3400;48.506;11.692;2022-11-25T14:40:59;3.50;;;3.13;;
6725;SDS011;3400;48.506;11.692;2022-11-25T14:43:29;4.23;;;2.90;;
6725;SDS011;3400;48.506;11.692;2022-11-25T14:46:13;3.47;;;2.87;;
6725;SDS011;3400;48.506;11.692;2022-11-25T14:48:40;5.17;;;2.90;;
6725;SDS011;3400;48.506;11.692;2022-11-25T14:51:08;8.70;;;5.30;;
6725;SDS011;3400;48.506;11.692;2022-11-25T14:53:43;11.53;;;7.17;;
6725;SDS011;3400;48.506;11.692;2022-11-25T14:56:10;16.00;;;11.43;;
6725;SDS011;3400;48.506;11.692;2022-11-25T14:58:44;9.50;;;6.47;;
6725;SDS011;3400;48.506;11.692;2022-11-25T15:01:22;7.93;;;4.30;;
6725;SDS011;3400;48.506;11.692;2022-11-25T15:03:51;5.97;;;3.37;;
6725;SDS011;3400;48.506;11.692;2022-11-25T15:06:32;5.90;;;3.50;;
6725;SDS011;3400;48.506;11.692;2022-11-25T15:08:59;5.67;;;2.90;;
6725;SDS011;3400;48.506;11.692;2022-11-25T15:11:28;5.10;;;2.83;;
6725;SDS011;3400;48.506;11.692;2022-11-25T15:14:02;3.57;;;2.53;;
6725;SDS011;3400;48.506;11.692;2022-11-25T15:16:34;6.63;;;2.53;;
6725;SDS011;3400;48.506;11.692;2022-11-25T15:19:02;3.93;;;2.50;;
6725;SDS011;3400;48.506;11.692;2022-11-25T15:21:33;7.03;;;2.67;;
6725;SDS011;3400;48.506;11.692;2022-11-25T15:24:03;9.10;;;3.00;;
6725;SDS011;3400;48.506;11.692;2022-11-25T15:26:31;6.07;;;3.57;;
6725;SDS011;3400;48.506;11.692;2022-11-25T15:28:59;3.50;;;2.80;;
6725;SDS011;3400;48.506;11.692;2022-11-25T15:31:34;10.07;;;3.13;;
6725;SDS011;3400;48.506;11.692;2022-11-25T15:34:04;7.00;;;3.10;;
6725;SDS011;3400;48.506;11.692;2022-11-25T15:36:31;7.73;;;3.43;;
6725;SDS011;3400;48.506;11.692;2022-11-25T15:44:43;4.83;;;3.07;;
6725;SDS011;3400;48.506;11.692;2022-11-25T15:47:26;6.33;;;3.00;;
6725;SDS011;3400;48.506;11.692;2022-11-25T15:52:22;6.90;;;3.63;;
6725;SDS011;3400;48.506;11.692;2022-11-25T15:54:50;6.17;;;3.40;;
6725;SDS011;3400;48.506;11.692;2022-11-25T15:57:30;5.40;;;3.70;;
6725;SDS011;3400;48.506;11.692;2022-11-25T16:18:11;13.43;;;8.33;;
6725;SDS011;3400;48.506;11.692;2022-11-25T16:20:44;9.90;;;5.43;;
6725;SDS011;3400;48.506;11.692;2022-11-25T16:23:11;6.10;;;5.03;;
6725;SDS011;3400;48.506;11.692;2022-11-25T16:25:45;7.87;;;4.30;;
6725;SDS011;3400;48.506;11.692;2022-11-25T16:28:30;9.13;;;5.87;;
6725;SDS011;3400;48.506;11.692;2022-11-25T16:30:57;13.07;;;6.93;;
6725;SDS011;3400;48.506;11.692;2022-11-25T16:33:24;11.43;;;4.87;;
6725;SDS011;3400;48.506;11.692;2022-11-25T16:35:51;7.60;;;4.30;;
6725;SDS011;3400;48.506;11.692;2022-11-25T16:38:18;5.97;;;4.50;;
6725;SDS011;3400;48.506;11.692;2022-11-25T16:40:45;10.83;;;7.37;;
6725;SDS011;3400;48.506;11.692;2022-11-25T16:43:16;7.93;;;5.27;;
6725;SDS011;3400;48.506;11.692;2022-11-25T16:45:47;9.73;;;5.00;;
6725;SDS011;3400;48.506;11.692;2022-11-25T16:48:15;9.37;;;6.90;;
6725;SDS011;3400;48.506;11.692;2022-11-25T16:50:42;11.30;;;7.03;;
6725;SDS011;3400;48.506;11.692;2022-11-25T16:53:09;8.73;;;6.97;;
6725;SDS011;3400;48.506;11.692;2022-11-25T16:55:35;10.87;;;7.30;;
6725;SDS011;3400;48.506;11.692;2022-11-25T16:58:04;9.13;;;7.67;;
6725;SDS011;3400;48.506;11.692;2022-11-25T17:00:31;8.23;;;6.63;;
6725;SDS011;3400;48.506;11.692;2022-11-25T17:02:58;9.43;;;7.17;;
6725;SDS011;3400;48.506;11.692;2022-11-25T17:05:25;11.87;;;9.10;;
6725;SDS011;3400;48.506;11.692;2022-11-25T17:07:52;11.70;;;7.33;;
6725;SDS011;3400;48.506;11.692;2022-11-25T17:10:19;12.33;;;7.43;;
6725;SDS011;3400;48.506;11.692;2022-11-25T17:12:46;9.67;;;7.33;;
6725;SDS011;3400;48.506;11.692;2022-11-25T17:15:15;12.33;;;10.23;;
6725;SDS011;3400;48.506;11.692;2022-11-25T17:17:42;9.30;;;6.97;;
6725;SDS011;3400;48.506;11.692;2022-11-25T17:20:14;9.37;;;7.23;;
6725;SDS011;3400;48.506;11.692;2022-11-25T17:22:41;10.37;;;7.30;;
6725;SDS011;3400;48.506;11.692;2022-11-25T17:25:10;9.87;;;7.83;;
6725;SDS011;3400;48.506;11.692;2022-11-25T17:27:37;26.73;;;16.20;;
6725;SDS011;3400;48.506;11.692;2022-11-25T17:30:05;17.70;;;12.10;;
6725;SDS011;3400;48.506;11.692;2022-11-25T17:32:32;10.87;;;9.07;;
6725;SDS011;3400;48.506;11.692;2022-11-25T17:34:59;14.20;;;12.63;;
6725;SDS011;3400;48.506;11.692;2022-11-25T17:37:26;11.43;;;8.50;;
6725;SDS011;3400;48.506;11.692;2022-11-25T17:39:55;9.90;;;8.53;;
6725;SDS011;3400;48.506;11.692;2022-11-25T17:42:31;14.60;;;8.60;;
6725;SDS011;3400;48.506;11.692;2022-11-25T17:45:02;11.73;;;8.13;;
6725;SDS011;3400;48.506;11.692;2022-11-25T17:47:39;12.70;;;8.23;;
6725;SDS011;3400;48.506;11.692;2022-11-25T17:52:38;9.47;;;7.90;;
6725;SDS011;3400;48.506;11.692;2022-11-25T17:55:05;9.60;;;8.40;;